メインページ
METAR-TAF:

METAR-TAF

空港 :

テヘラン, イラン

メヘラーバード国際空港

緯度: 35-41N, 経度: 051-21E, 海抜: 1204m

現時点の気象観測

当レポートは35分前の16:00(UTC)に作成
北西の風 6kt
気温 33°C
湿度 6%
気圧 1006 hPa
視程10km以上
1,500メートル以下は雲なし、積乱雲なし

METAR: OIII 221600Z 31006KT CAVOK 33/M09 Q1006 A2971 NOSIG NOSIG

時間: 21:05 (16:35 UTC)

予報

当レポートは5時間35分前の11:00(UTC)に作成
予報は22日の 12時(UTC)から 23日の 18時(UTC)まで有効
西の風 10kt
視程10km以上
1,500メートル以下は雲なし、積乱雲なし
22日の 12時(UTC)から 22日の 15時(UTC)まで一時的に
北西の風 16kt、最大23ktの突風を伴う
22日の 20時(UTC)から 22日の 24時(UTC)まで一時的に
北西の風 16kt、最大23ktの突風を伴う
23日の 06時(UTC)から 23日の 08時(UTC)まで徐々に
西/南西の風 10kt

TAF: OIII 221100Z 2212/2318 28005MPS CAVOK TEMPO 2212/2215 32008G12MPS TEMPO 2220/2224 32008G12MPS BECMG 2306/2308 24005MPS

4,000以上の空港の気象観測と天気予報(METAR報とTAF報)

利用可能な観測所は地図上に黄色い丸と赤い丸で示す。

丸の上にカーソルを重ねると観測所名を参照できる。

次にクリックすると気象観測と天気予報を参照できる。

マップの切り替え:黒色「×」印の緑ボタンをクリックして拡大、「-」印の緑ボタンをクリックして縮小、緑色の三角印をクリックして隣りの地図に切り替え


METAR-TAF: